createdAt,value
2019-05-17T00:02:27.483Z,17.15
2019-05-17T00:04:56.984Z,14.85
2019-05-17T00:07:32.010Z,16.07
2019-05-17T00:10:09.150Z,18.52
2019-05-17T00:12:38.656Z,15.85
2019-05-17T00:15:09.056Z,16.48
2019-05-17T00:17:39.054Z,16.87
2019-05-17T00:20:12.045Z,17.02
2019-05-17T00:22:41.992Z,17.00
2019-05-17T00:25:12.887Z,17.17
2019-05-17T00:27:51.520Z,16.90
2019-05-17T00:30:26.615Z,16.25
2019-05-17T00:36:04.113Z,14.70
2019-05-17T00:38:48.359Z,16.82
2019-05-17T00:41:17.767Z,16.80
2019-05-17T00:43:47.646Z,16.23
2019-05-17T00:46:22.756Z,16.60
2019-05-17T00:49:11.196Z,15.85
2019-05-17T01:04:27.464Z,15.93
2019-05-17T01:07:33.246Z,17.32
2019-05-17T01:16:07.379Z,15.30
2019-05-17T01:21:27.984Z,14.83
2019-05-17T01:24:17.916Z,16.32
2019-05-17T01:26:50.481Z,14.68
2019-05-17T01:29:52.566Z,15.80
2019-05-17T01:32:31.382Z,14.87
2019-05-17T01:35:07.327Z,14.10
2019-05-17T01:37:41.488Z,14.38
2019-05-17T01:40:11.327Z,15.25
2019-05-17T01:42:40.627Z,15.28
2019-05-17T01:45:10.625Z,15.30
2019-05-17T01:47:41.244Z,15.55
2019-05-17T01:50:14.466Z,15.08
2019-05-17T01:52:46.123Z,16.23
2019-05-17T01:55:17.211Z,15.95
2019-05-17T01:58:07.480Z,14.70
2019-05-17T02:00:48.502Z,15.78
2019-05-17T02:09:08.904Z,14.18
2019-05-17T02:12:02.136Z,15.25
2019-05-17T02:14:37.464Z,14.87
2019-05-17T02:23:47.853Z,14.87
2019-05-17T02:26:17.510Z,13.22
2019-05-17T02:28:57.003Z,13.83
2019-05-17T02:31:27.842Z,14.80
2019-05-17T02:34:03.114Z,14.95
2019-05-17T02:36:33.908Z,17.25
2019-05-17T02:39:08.171Z,16.77
2019-05-17T02:41:42.775Z,14.25
2019-05-17T02:44:13.030Z,14.80
2019-05-17T02:46:44.365Z,14.00
2019-05-17T02:49:14.921Z,14.78
2019-05-17T02:54:43.683Z,14.05
2019-05-17T02:58:12.853Z,14.53
2019-05-17T03:00:52.910Z,13.88
2019-05-17T03:04:03.922Z,12.65
2019-05-17T03:06:46.046Z,14.25
2019-05-17T03:09:25.144Z,15.30
2019-05-17T03:11:58.786Z,13.65
2019-05-17T03:14:28.201Z,13.80
2019-05-17T03:16:57.570Z,13.48
2019-05-17T03:19:27.585Z,14.13
2019-05-17T03:21:56.986Z,14.05
2019-05-17T03:24:26.370Z,14.60
2019-05-17T03:26:55.685Z,13.50
2019-05-17T03:29:26.423Z,15.30
2019-05-17T03:32:00.274Z,13.78
2019-05-17T03:34:27.936Z,15.20
2019-05-17T03:36:57.297Z,15.95
2019-05-17T03:39:26.684Z,15.93
2019-05-17T03:41:56.331Z,15.28
2019-05-17T03:44:25.790Z,16.65
2019-05-17T03:46:57.680Z,15.72
2019-05-17T03:49:28.513Z,15.63
2019-05-17T03:51:58.126Z,16.10
2019-05-17T03:54:27.673Z,15.50
2019-05-17T03:56:57.453Z,15.80
2019-05-17T03:59:26.876Z,16.77
2019-05-17T04:01:57.089Z,15.93
2019-05-17T04:04:26.654Z,15.93
2019-05-17T04:06:56.379Z,15.25
2019-05-17T04:09:25.866Z,16.90
2019-05-17T04:11:55.243Z,17.95
2019-05-17T04:14:24.701Z,16.82
2019-05-17T04:16:54.438Z,17.62
2019-05-17T04:19:23.777Z,18.75
2019-05-17T04:21:53.815Z,16.90
2019-05-17T04:24:23.314Z,17.87
2019-05-17T04:26:53.709Z,17.70
2019-05-17T04:29:24.244Z,17.25
2019-05-17T04:31:55.995Z,18.80
2019-05-17T04:34:25.791Z,16.57
2019-05-17T04:36:58.243Z,17.98
2019-05-17T04:39:27.627Z,19.07
2019-05-17T04:41:57.068Z,18.15
2019-05-17T04:44:28.046Z,17.77
2019-05-17T05:00:14.889Z,17.40
2019-05-17T05:02:55.417Z,17.80
2019-05-17T05:05:27.135Z,19.73
2019-05-17T05:08:02.992Z,19.55
2019-05-17T05:11:08.031Z,18.98
2019-05-17T05:13:37.908Z,19.32
2019-05-17T05:16:13.250Z,21.33
2019-05-17T05:18:48.680Z,20.05
2019-05-17T05:26:02.953Z,19.80
2019-05-17T05:29:02.589Z,18.80
2019-05-17T05:43:42.054Z,24.23
2019-05-17T05:49:58.541Z,21.30
2019-05-17T05:59:42.510Z,19.50
2019-05-17T06:02:15.370Z,20.40
2019-05-17T06:05:07.536Z,19.62
2019-05-17T06:07:48.189Z,19.87
2019-05-17T06:10:24.934Z,20.45
2019-05-17T06:13:04.987Z,21.00
2019-05-17T06:15:46.984Z,19.85
2019-05-17T06:18:38.417Z,21.37
2019-05-17T15:49:05.548Z,12.25
2019-05-17T16:33:33.847Z,13.20
2019-05-17T16:36:16.290Z,9.60
2019-05-17T16:38:53.247Z,8.85
2019-05-17T16:41:49.420Z,8.83
2019-05-17T16:50:26.450Z,6.05
2019-05-17T16:53:05.402Z,6.10
2019-05-17T16:55:27.004Z,5.20
2019-05-17T16:59:21.888Z,5.90
2019-05-17T17:02:29.279Z,5.67
2019-05-17T17:05:52.377Z,5.85
2019-05-17T17:08:21.700Z,5.42
2019-05-17T17:10:51.059Z,11.38
2019-05-17T17:13:33.120Z,7.97
2019-05-17T17:16:03.978Z,12.58
2019-05-17T17:19:09.250Z,8.35
2019-05-17T17:25:14.652Z,5.40
2019-05-17T17:40:49.517Z,6.05
2019-05-17T17:43:58.626Z,6.17
2019-05-17T17:47:11.587Z,5.60
2019-05-17T17:50:15.734Z,6.53
2019-05-17T17:56:28.504Z,5.40
2019-05-17T17:59:13.019Z,4.55
2019-05-17T18:11:10.081Z,5.50
2019-05-17T18:19:55.912Z,5.42
2019-05-17T18:23:01.906Z,4.67
2019-05-17T18:26:10.258Z,4.80
2019-05-17T18:29:29.475Z,5.25
2019-05-17T18:58:50.432Z,6.42
2019-05-17T19:01:20.693Z,6.70
2019-05-17T19:03:53.417Z,6.33
2019-05-17T19:06:32.293Z,5.80
2019-05-17T19:09:15.107Z,6.75
2019-05-17T19:11:47.473Z,6.00
2019-05-17T19:14:21.772Z,7.97
2019-05-17T19:21:14.864Z,6.60
2019-05-17T19:23:56.344Z,6.08
2019-05-17T19:32:43.302Z,6.47
2019-05-17T19:35:25.402Z,6.35
2019-05-17T19:43:50.293Z,6.78
2019-05-17T20:00:26.360Z,7.37
2019-05-17T20:02:59.976Z,9.35
2019-05-17T20:05:29.747Z,9.63
2019-05-17T20:08:00.106Z,9.75
2019-05-17T20:11:46.933Z,9.88
2019-05-17T20:37:10.230Z,10.93
2019-05-17T20:39:41.705Z,9.80
2019-05-17T20:45:32.536Z,10.55
2019-05-17T20:47:52.516Z,9.63
2019-05-17T20:50:32.479Z,9.60
2019-05-17T20:53:18.819Z,8.70
2019-05-17T20:56:10.580Z,9.88
2019-05-17T20:58:46.437Z,9.60
2019-05-17T21:01:17.524Z,9.35
2019-05-17T21:04:08.185Z,8.40
2019-05-17T21:06:34.863Z,9.73
2019-05-17T21:09:05.073Z,9.23
2019-05-17T21:11:34.467Z,9.53
2019-05-17T21:14:04.683Z,9.95
2019-05-17T21:19:30.075Z,9.60
2019-05-17T21:22:04.062Z,10.95
2019-05-17T21:24:34.244Z,10.13
2019-05-17T21:27:03.874Z,10.10
2019-05-17T21:29:33.690Z,10.65
2019-05-17T21:32:03.143Z,10.70
2019-05-17T21:34:32.548Z,9.88
2019-05-17T21:37:02.003Z,10.13
2019-05-17T21:39:31.542Z,10.55
2019-05-17T21:42:01.065Z,11.43
2019-05-17T21:44:30.570Z,12.63
2019-05-17T21:47:04.593Z,11.30
2019-05-17T21:49:32.276Z,12.25
2019-05-17T21:52:02.184Z,12.03
2019-05-17T21:54:31.744Z,13.80
2019-05-17T21:57:01.970Z,12.20
2019-05-17T21:59:33.426Z,11.63
2019-05-17T22:02:07.551Z,12.63
2019-05-17T22:04:36.942Z,12.75
2019-05-17T22:07:06.579Z,12.00
2019-05-17T22:09:37.313Z,12.33
2019-05-17T22:12:09.947Z,11.10
2019-05-17T22:14:43.480Z,11.05
2019-05-17T22:17:15.055Z,11.68
2019-05-17T22:19:44.662Z,12.43
2019-05-17T22:22:13.986Z,12.98
2019-05-17T22:24:43.277Z,12.37
2019-05-17T22:27:12.706Z,12.20
2019-05-17T22:29:42.130Z,13.40
2019-05-17T22:32:11.461Z,12.68
2019-05-17T22:34:40.791Z,13.15
2019-05-17T22:37:11.326Z,13.00
2019-05-17T22:39:40.622Z,11.93
2019-05-17T22:42:09.955Z,12.00
2019-05-17T22:44:40.787Z,11.55
2019-05-17T22:47:10.217Z,12.65
2019-05-17T22:49:39.508Z,13.55
2019-05-17T22:52:08.890Z,12.20
2019-05-17T22:54:38.297Z,11.43
2019-05-17T22:57:07.994Z,13.55
2019-05-17T22:59:37.326Z,13.48
2019-05-17T23:02:08.642Z,14.47
2019-05-17T23:04:37.963Z,13.40
2019-05-17T23:07:07.237Z,12.88
2019-05-17T23:09:36.558Z,14.55
2019-05-17T23:12:08.203Z,13.18
2019-05-17T23:14:37.476Z,14.73
2019-05-17T23:17:06.855Z,11.93
2019-05-17T23:19:36.182Z,14.05
2019-05-17T23:22:05.785Z,12.85
2019-05-17T23:24:35.047Z,13.03
2019-05-17T23:27:04.518Z,12.20
2019-05-17T23:29:33.956Z,13.55
2019-05-17T23:32:03.472Z,12.88
2019-05-17T23:34:32.872Z,13.20
2019-05-17T23:37:02.397Z,13.62
2019-05-17T23:39:31.794Z,12.85
2019-05-17T23:42:01.104Z,12.63
2019-05-17T23:44:31.690Z,12.45
2019-05-17T23:47:06.960Z,12.70
2019-05-17T23:49:32.091Z,12.63
2019-05-17T23:52:01.501Z,13.40
2019-05-17T23:54:30.811Z,11.78
2019-05-17T23:57:00.207Z,13.10
2019-05-17T23:59:29.575Z,13.28
